Map

Track Data

SID SEASON NUMBER BASIN SUBBASIN NAME ISO_TIME NATURE LAT LON WMO_WIND WMO_PRES WMO_AGENCY TRACK_TYPE DIST2LAND LANDFALL IFLAG USA_AGENCY USA_ATCF_ID USA_LAT USA_LON USA_RECORD USA_STATUS USA_WIND USA_PRES USA_SSHS USA_R34_NE USA_R34_SE USA_R34_SW USA_R34_NW USA_R50_NE USA_R50_SE USA_R50_SW USA_R50_NW USA_R64_NE USA_R64_SE USA_R64_SW USA_R64_NW USA_POCI USA_ROCI USA_RMW USA_EYE TOKYO_LAT TOKYO_LON TOKYO_GRADE TOKYO_WIND TOKYO_PRES TOKYO_R50_DIR TOKYO_R50_LONG TOKYO_R50_SHORT TOKYO_R30_DIR TOKYO_R30_LONG TOKYO_R30_SHORT TOKYO_LAND CMA_LAT CMA_LON CMA_CAT CMA_WIND CMA_PRES HKO_LAT HKO_LON HKO_CAT HKO_WIND HKO_PRES NEWDELHI_LAT NEWDELHI_LON NEWDELHI_GRADE NEWDELHI_WIND NEWDELHI_PRES NEWDELHI_CI NEWDELHI_DP NEWDELHI_POCI REUNION_LAT REUNION_LON REUNION_TYPE REUNION_WIND REUNION_PRES REUNION_TNUM REUNION_CI REUNION_RMW REUNION_R34_NE REUNION_R34_SE REUNION_R34_SW REUNION_R34_NW REUNION_R50_NE REUNION_R50_SE REUNION_R50_SW REUNION_R50_NW REUNION_R64_NE REUNION_R64_SE REUNION_R64_SW REUNION_R64_NW BOM_LAT BOM_LON BOM_TYPE BOM_WIND BOM_PRES BOM_TNUM BOM_CI BOM_RMW BOM_R34_NE BOM_R34_SE BOM_R34_SW BOM_R34_NW BOM_R50_NE BOM_R50_SE BOM_R50_SW BOM_R50_NW BOM_R64_NE BOM_R64_SE BOM_R64_SW BOM_R64_NW BOM_ROCI BOM_POCI BOM_EYE BOM_POS_METHOD BOM_PRES_METHOD NADI_LAT NADI_LON NADI_CAT NADI_WIND NADI_PRES WELLINGTON_LAT WELLINGTON_LON WELLINGTON_WIND WELLINGTON_PRES DS824_LAT DS824_LON DS824_STAGE DS824_WIND DS824_PRES TD9636_LAT TD9636_LON TD9636_STAGE TD9636_WIND TD9636_PRES TD9635_LAT TD9635_LON TD9635_WIND TD9635_PRES TD9635_ROCI NEUMANN_LAT NEUMANN_LON NEUMANN_CLASS NEUMANN_WIND NEUMANN_PRES MLC_LAT MLC_LON MLC_CLASS MLC_WIND MLC_PRES USA_GUST BOM_GUST BOM_GUST_PER REUNION_GUST REUNION_GUST_PER USA_SEAHGT USA_SEARAD_NE USA_SEARAD_SE USA_SEARAD_SW USA_SEARAD_NW STORM_SPEED STORM_DIR
1857335S15062 1858 18 SI MM NOT_NAMED 1857-12-01 06:00:00 NR -14.8000 62.2000 reunion spur-split 761 754 _____O________ -1 -14.8000 62.2000 99 9.90000 1 261
1857335S15062 1858 18 SI MM NOT_NAMED 1857-12-01 09:00:00 NR -14.8110 62.1352 spur-split 754 754 _____P________ -1 -14.8110 62.1352 99 1 258
1857335S15062 1858 18 SI MM NOT_NAMED 1857-12-01 12:00:00 NR -14.8293 62.0670 spur-split 754 739 _____P________ -1 -14.8293 62.0670 99 1 250
1857335S15062 1858 18 SI MM NOT_NAMED 1857-12-01 15:00:00 NR -14.8622 61.9922 spur-split 739 732 _____P________ -1 -14.8622 61.9922 99 2 240
1857335S15062 1858 18 SI MM NOT_NAMED 1857-12-01 18:00:00 NR -14.9169 61.9074 spur-split 732 717 _____P________ -1 -14.9169 61.9074 99 2 232
1857335S15062 1858 18 SI MM NOT_NAMED 1857-12-01 21:00:00 NR -15.0008 61.8092 spur-split 717 701 _____P________ -1 -15.0008 61.8092 99 3 225
1857335S15062 1858 18 SI MM NOT_NAMED 1857-12-02 00:00:00 NR -15.1211 61.6942 spur-split 701 677 _____P________ -1 -15.1211 61.6942 99 4 220
1857335S15062 1858 18 SI MM NOT_NAMED 1857-12-02 03:00:00 NR -15.2851 61.5590 spur-split 677 646 _____P________ -1 -15.2851 61.5590 99 5 217
1857335S15062 1858 18 SI MM NOT_NAMED 1857-12-02 06:00:00 NR -15.5000 61.4000 reunion spur-split 646 607 _____O________ -1 -15.5000 61.4000 99 9.90000 6 214
1857335S15062 1858 18 SI MM NOT_NAMED 1857-12-02 09:00:00 NR -15.7702 61.2156 spur-split 607 567 _____P________ -1 -15.7702 61.2156 99 7 212
1857335S15062 1858 18 SI MM NOT_NAMED 1857-12-02 12:00:00 NR -16.0880 61.0113 spur-split 567 527 _____P________ -1 -16.0880 61.0113 99 8 211
1857335S15062 1858 18 SI MM NOT_NAMED 1857-12-02 15:00:00 NR -16.4427 60.7948 spur-split 527 479 _____P________ -1 -16.4427 60.7948 99 9 210
1857335S15062 1858 18 SI MM NOT_NAMED 1857-12-02 18:00:00 NR -16.8237 60.5738 spur-split 479 431 _____P________ -1 -16.8237 60.5738 99 9 208
1857335S15062 1858 18 SI MM NOT_NAMED 1857-12-02 21:00:00 NR -17.2205 60.3558 spur-split 431 383 _____P________ -1 -17.2205 60.3558 99 9 207
1857335S15062 1858 18 SI MM NOT_NAMED 1857-12-03 00:00:00 NR -17.6225 60.1489 spur-split 376 337 _____P________ -1 -17.6225 60.1489 99 9 205
1857335S15062 1858 18 SI MM NOT_NAMED 1857-12-03 03:00:00 NR -18.0192 59.9609 spur-split 337 291 _____P________ -1 -18.0192 59.9609 99 9 203
1857335S15062 1858 18 SI MM NOT_NAMED 1857-12-03 06:00:00 NR -18.4000 59.8000 reunion spur-split 291 261 _____O________ -1 -18.4000 59.8000 99 9.90000 7 202
1857335S15062 1858 18 SI MM NOT_NAMED 1857-12-03 09:00:00 NR -18.7000 59.6672 spur-split 261 234 _____P________ -1 -18.7000 59.6672 99 6 202
1857335S15062 1858 18 SI MM NOT_NAMED 1857-12-03 12:00:00 NR -18.9867 59.5568 spur-split 234 208 _____P________ -1 -18.9867 59.5568 99 6 198
1857335S15062 1858 18 SI MM NOT_NAMED 1857-12-03 15:00:00 NR -19.2667 59.4695 spur-split 208 189 _____P________ -1 -19.2667 59.4695 99 6 194
1857335S15062 1858 18 SI MM NOT_NAMED 1857-12-03 18:00:00 NR -19.5468 59.4058 spur-split 189 176 _____P________ -1 -19.5468 59.4058 99 6 189
1857335S15062 1858 18 SI MM NOT_NAMED 1857-12-03 21:00:00 NR -19.8336 59.3663 spur-split 176 168 _____P________ -1 -19.8336 59.3663 99 6 186
1857335S15062 1858 18 SI MM NOT_NAMED 1857-12-04 00:00:00 NR -20.1336 59.3518 spur-split 168 166 _____P________ -1 -20.1336 59.3518 99 6 182
1857335S15062 1858 18 SI MM NOT_NAMED 1857-12-04 03:00:00 NR -20.4535 59.3628 spur-split 168 168 _____P________ -1 -20.4535 59.3628 99 7 176
1857335S15062 1858 18 SI MM NOT_NAMED 1857-12-04 06:00:00 NR -20.8000 59.4000 reunion spur-split 175 175 _____O________ -1 -20.8000 59.4000 99 9.90000 8 174
1857335S15062 1858 18 SI MM NOT_NAMED 1857-12-04 09:00:00 NR -21.2439 59.4544 spur-split 202 202 _____P________ -1 -21.2439 59.4544 99 9 172
1857335S15062 1858 18 SI MM NOT_NAMED 1857-12-04 12:00:00 NR -21.7193 59.5380 spur-split 229 229 _____P________ -1 -21.7193 59.5380 99 10 170
1857335S15062 1858 18 SI MM NOT_NAMED 1857-12-04 15:00:00 NR -22.2113 59.6465 spur-split 273 273 _____P________ -1 -22.2113 59.6465 99 10 167
1857335S15062 1858 18 SI MM NOT_NAMED 1857-12-04 18:00:00 NR -22.7051 59.7754 spur-split 328 328 _____P________ -1 -22.7051 59.7754 99 10 165
1857335S15062 1858 18 SI MM NOT_NAMED 1857-12-04 21:00:00 NR -23.1857 59.9199 spur-split 377 377 _____P________ -1 -23.1857 59.9199 99 10 164
1857335S15062 1858 18 SI MM NOT_NAMED 1857-12-05 00:00:00 NR -23.6383 60.0755 spur-split 425 425 _____P________ -1 -23.6383 60.0755 99 9 161
1857335S15062 1858 18 SI MM NOT_NAMED 1857-12-05 03:00:00 NR -24.0480 60.2372 spur-split 468 468 _____P________ -1 -24.0480 60.2372 99 8 159
1857335S15062 1858 18 SI MM NOT_NAMED 1857-12-05 06:00:00 NR -24.4000 60.4000 reunion spur-split 516 516 _____O________ -1 -24.4000 60.4000 99 9.90000 7 155
1857335S15062 1858 18 SI MM NOT_NAMED 1857-12-05 09:00:00 NR -24.6835 60.5597 spur-split 555 555 _____P________ -1 -24.6835 60.5597 99 6 150
1857335S15062 1858 18 SI MM NOT_NAMED 1857-12-05 12:00:00 NR -24.9036 60.7157 spur-split 580 580 _____P________ -1 -24.9036 60.7157 99 5 144
1857335S15062 1858 18 SI MM NOT_NAMED 1857-12-05 15:00:00 NR -25.0694 60.8684 spur-split 609 609 _____P________ -1 -25.0694 60.8684 99 4 136
1857335S15062 1858 18 SI MM NOT_NAMED 1857-12-05 18:00:00 NR -25.1899 61.0182 spur-split 624 624 _____P________ -1 -25.1899 61.0182 99 3 127
1857335S15062 1858 18 SI MM NOT_NAMED 1857-12-05 21:00:00 NR -25.2742 61.1658 spur-split 645 645 _____P________ -1 -25.2742 61.1658 99 3 118
1857335S15062 1858 18 SI MM NOT_NAMED 1857-12-06 00:00:00 NR -25.3313 61.3115 spur-split 650 650 _____P________ -1 -25.3313 61.3115 99 3 110
1857335S15062 1858 18 SI MM NOT_NAMED 1857-12-06 03:00:00 NR -25.3702 61.4560 spur-split 671 671 _____P________ -1 -25.3702 61.4560 99 3 105
1857335S15062 1858 18 SI MM NOT_NAMED 1857-12-06 06:00:00 NR -25.4000 61.6000 reunion spur-split 677 _____O________ -1 -25.4000 61.6000 99 9.90000 3 103

About IBTrACS Database

This database is a web-friendly format of International Best Track Archive for Climate Stewardship (IBTrACS), a global best track data archive curated by NOAA dating back to 1842.

Updated: 2021-10-27